sensor_id;sensor_type;location;lat;lon;timestamp;P1;durP1;ratioP1;P2;durP2;ratioP2
18933;SDS011;9599;53.706;10.384;2022-09-09T00:00:41;45.53;;;23.17;;
18933;SDS011;9599;53.706;10.384;2022-09-09T00:03:16;45.20;;;22.23;;
18933;SDS011;9599;53.706;10.384;2022-09-09T00:05:51;44.83;;;22.63;;
18933;SDS011;9599;53.706;10.384;2022-09-09T00:08:28;42.73;;;22.20;;
18933;SDS011;9599;53.706;10.384;2022-09-09T00:11:05;40.60;;;20.87;;
18933;SDS011;9599;53.706;10.384;2022-09-09T00:13:37;44.17;;;20.77;;
18933;SDS011;9599;53.706;10.384;2022-09-09T00:16:09;39.93;;;20.43;;
18933;SDS011;9599;53.706;10.384;2022-09-09T00:18:47;38.37;;;19.97;;
18933;SDS011;9599;53.706;10.384;2022-09-09T00:21:24;40.50;;;20.33;;
18933;SDS011;9599;53.706;10.384;2022-09-09T00:23:59;41.23;;;20.93;;
18933;SDS011;9599;53.706;10.384;2022-09-09T00:26:38;37.70;;;20.53;;
18933;SDS011;9599;53.706;10.384;2022-09-09T00:29:10;36.90;;;19.43;;
18933;SDS011;9599;53.706;10.384;2022-09-09T00:31:45;40.63;;;19.77;;
18933;SDS011;9599;53.706;10.384;2022-09-09T00:34:14;35.90;;;19.20;;
18933;SDS011;9599;53.706;10.384;2022-09-09T00:36:46;38.17;;;19.83;;
18933;SDS011;9599;53.706;10.384;2022-09-09T00:39:19;38.93;;;20.23;;
18933;SDS011;9599;53.706;10.384;2022-09-09T00:42:09;40.50;;;20.80;;
18933;SDS011;9599;53.706;10.384;2022-09-09T00:44:46;38.13;;;18.77;;
18933;SDS011;9599;53.706;10.384;2022-09-09T00:47:25;40.47;;;19.87;;
18933;SDS011;9599;53.706;10.384;2022-09-09T00:50:09;41.60;;;19.77;;
18933;SDS011;9599;53.706;10.384;2022-09-09T00:52:54;46.80;;;20.63;;
18933;SDS011;9599;53.706;10.384;2022-09-09T00:55:32;39.37;;;19.03;;
18933;SDS011;9599;53.706;10.384;2022-09-09T00:58:08;39.30;;;19.67;;
18933;SDS011;9599;53.706;10.384;2022-09-09T01:00:39;48.17;;;19.50;;
18933;SDS011;9599;53.706;10.384;2022-09-09T01:03:14;36.57;;;19.17;;
18933;SDS011;9599;53.706;10.384;2022-09-09T01:05:53;39.57;;;19.67;;
18933;SDS011;9599;53.706;10.384;2022-09-09T01:08:36;40.20;;;19.20;;
18933;SDS011;9599;53.706;10.384;2022-09-09T01:11:25;39.53;;;19.50;;
18933;SDS011;9599;53.706;10.384;2022-09-09T01:14:00;36.63;;;19.13;;
18933;SDS011;9599;53.706;10.384;2022-09-09T01:16:33;39.23;;;19.03;;
18933;SDS011;9599;53.706;10.384;2022-09-09T01:19:01;37.20;;;19.07;;
18933;SDS011;9599;53.706;10.384;2022-09-09T01:21:34;36.43;;;18.87;;
18933;SDS011;9599;53.706;10.384;2022-09-09T01:24:20;59.73;;;19.30;;
18933;SDS011;9599;53.706;10.384;2022-09-09T01:27:08;36.63;;;18.93;;
18933;SDS011;9599;53.706;10.384;2022-09-09T01:29:37;41.43;;;17.60;;
18933;SDS011;9599;53.706;10.384;2022-09-09T01:35:08;30.87;;;17.53;;
18933;SDS011;9599;53.706;10.384;2022-09-09T01:37:42;35.47;;;18.37;;
18933;SDS011;9599;53.706;10.384;2022-09-09T01:40:10;28.17;;;16.30;;
18933;SDS011;9599;53.706;10.384;2022-09-09T01:42:40;37.07;;;17.20;;
18933;SDS011;9599;53.706;10.384;2022-09-09T01:45:08;32.37;;;16.97;;
18933;SDS011;9599;53.706;10.384;2022-09-09T01:47:37;33.53;;;17.17;;
18933;SDS011;9599;53.706;10.384;2022-09-09T01:50:16;32.00;;;16.87;;
18933;SDS011;9599;53.706;10.384;2022-09-09T01:52:46;33.03;;;17.03;;
18933;SDS011;9599;53.706;10.384;2022-09-09T01:55:20;31.80;;;17.07;;
18933;SDS011;9599;53.706;10.384;2022-09-09T01:58:02;33.80;;;16.67;;
18933;SDS011;9599;53.706;10.384;2022-09-09T02:00:49;30.33;;;16.13;;
18933;SDS011;9599;53.706;10.384;2022-09-09T02:03:24;37.57;;;16.63;;
18933;SDS011;9599;53.706;10.384;2022-09-09T02:06:04;31.83;;;16.83;;
18933;SDS011;9599;53.706;10.384;2022-09-09T02:08:42;31.60;;;16.83;;
18933;SDS011;9599;53.706;10.384;2022-09-09T02:11:13;30.80;;;16.53;;
18933;SDS011;9599;53.706;10.384;2022-09-09T02:14:01;27.83;;;15.47;;
18933;SDS011;9599;53.706;10.384;2022-09-09T02:16:36;29.73;;;15.23;;
18933;SDS011;9599;53.706;10.384;2022-09-09T02:19:09;28.83;;;15.60;;
18933;SDS011;9599;53.706;10.384;2022-09-09T02:21:54;29.00;;;15.93;;
18933;SDS011;9599;53.706;10.384;2022-09-09T02:24:24;29.13;;;15.17;;
18933;SDS011;9599;53.706;10.384;2022-09-09T02:27:06;27.03;;;15.17;;
18933;SDS011;9599;53.706;10.384;2022-09-09T02:29:39;28.50;;;15.07;;
18933;SDS011;9599;53.706;10.384;2022-09-09T02:32:11;31.27;;;15.90;;
18933;SDS011;9599;53.706;10.384;2022-09-09T02:34:43;25.70;;;15.00;;
18933;SDS011;9599;53.706;10.384;2022-09-09T02:37:15;28.27;;;14.97;;
18933;SDS011;9599;53.706;10.384;2022-09-09T02:39:50;25.53;;;14.53;;
18933;SDS011;9599;53.706;10.384;2022-09-09T02:42:20;27.33;;;15.20;;
18933;SDS011;9599;53.706;10.384;2022-09-09T02:44:52;25.63;;;14.57;;
18933;SDS011;9599;53.706;10.384;2022-09-09T02:47:24;27.03;;;14.33;;
18933;SDS011;9599;53.706;10.384;2022-09-09T02:50:04;25.67;;;14.50;;
18933;SDS011;9599;53.706;10.384;2022-09-09T02:52:43;27.50;;;15.70;;
18933;SDS011;9599;53.706;10.384;2022-09-09T02:55:18;26.53;;;15.17;;
18933;SDS011;9599;53.706;10.384;2022-09-09T02:57:56;32.77;;;15.93;;
18933;SDS011;9599;53.706;10.384;2022-09-09T03:00:29;31.73;;;16.17;;
18933;SDS011;9599;53.706;10.384;2022-09-09T03:03:00;31.53;;;16.87;;
18933;SDS011;9599;53.706;10.384;2022-09-09T03:05:28;27.97;;;15.20;;
18933;SDS011;9599;53.706;10.384;2022-09-09T03:07:56;29.97;;;16.13;;
18933;SDS011;9599;53.706;10.384;2022-09-09T03:10:24;30.63;;;16.33;;
18933;SDS011;9599;53.706;10.384;2022-09-09T03:12:52;30.97;;;16.50;;
18933;SDS011;9599;53.706;10.384;2022-09-09T03:15:21;34.03;;;17.03;;
18933;SDS011;9599;53.706;10.384;2022-09-09T03:17:51;30.90;;;16.40;;
18933;SDS011;9599;53.706;10.384;2022-09-09T03:20:20;35.00;;;17.40;;
18933;SDS011;9599;53.706;10.384;2022-09-09T03:22:49;34.90;;;16.67;;
18933;SDS011;9599;53.706;10.384;2022-09-09T03:25:17;37.80;;;17.20;;
18933;SDS011;9599;53.706;10.384;2022-09-09T03:27:45;33.90;;;17.60;;
18933;SDS011;9599;53.706;10.384;2022-09-09T03:30:13;32.53;;;17.53;;
18933;SDS011;9599;53.706;10.384;2022-09-09T03:32:41;32.13;;;16.67;;
18933;SDS011;9599;53.706;10.384;2022-09-09T03:35:15;29.90;;;16.57;;
18933;SDS011;9599;53.706;10.384;2022-09-09T03:37:43;34.70;;;18.10;;
18933;SDS011;9599;53.706;10.384;2022-09-09T03:40:13;38.90;;;18.60;;
18933;SDS011;9599;53.706;10.384;2022-09-09T03:42:43;33.80;;;18.40;;
18933;SDS011;9599;53.706;10.384;2022-09-09T03:45:11;29.37;;;17.53;;
18933;SDS011;9599;53.706;10.384;2022-09-09T03:47:40;33.70;;;17.13;;
18933;SDS011;9599;53.706;10.384;2022-09-09T03:50:08;31.67;;;17.57;;
18933;SDS011;9599;53.706;10.384;2022-09-09T03:52:43;33.60;;;17.80;;
18933;SDS011;9599;53.706;10.384;2022-09-09T03:55:17;34.47;;;17.53;;
18933;SDS011;9599;53.706;10.384;2022-09-09T03:57:45;31.90;;;17.43;;
18933;SDS011;9599;53.706;10.384;2022-09-09T04:00:14;31.30;;;16.67;;
18933;SDS011;9599;53.706;10.384;2022-09-09T04:02:42;32.87;;;17.43;;
18933;SDS011;9599;53.706;10.384;2022-09-09T04:05:14;30.97;;;17.07;;
18933;SDS011;9599;53.706;10.384;2022-09-09T04:07:46;30.83;;;17.53;;
18933;SDS011;9599;53.706;10.384;2022-09-09T04:10:14;28.70;;;16.40;;
18933;SDS011;9599;53.706;10.384;2022-09-09T04:12:42;31.20;;;16.70;;
18933;SDS011;9599;53.706;10.384;2022-09-09T04:15:15;29.77;;;16.83;;
18933;SDS011;9599;53.706;10.384;2022-09-09T04:17:44;29.60;;;16.47;;
18933;SDS011;9599;53.706;10.384;2022-09-09T04:20:12;30.20;;;16.83;;
18933;SDS011;9599;53.706;10.384;2022-09-09T04:22:40;33.07;;;16.87;;
18933;SDS011;9599;53.706;10.384;2022-09-09T04:25:09;32.10;;;17.80;;
18933;SDS011;9599;53.706;10.384;2022-09-09T04:27:37;33.33;;;18.13;;
18933;SDS011;9599;53.706;10.384;2022-09-09T04:30:06;30.07;;;17.17;;
18933;SDS011;9599;53.706;10.384;2022-09-09T04:32:35;33.73;;;18.30;;
18933;SDS011;9599;53.706;10.384;2022-09-09T04:35:03;33.17;;;17.80;;
18933;SDS011;9599;53.706;10.384;2022-09-09T04:37:33;30.47;;;18.00;;
18933;SDS011;9599;53.706;10.384;2022-09-09T04:40:01;31.47;;;17.07;;
18933;SDS011;9599;53.706;10.384;2022-09-09T04:42:31;29.57;;;16.90;;
18933;SDS011;9599;53.706;10.384;2022-09-09T04:45:02;31.10;;;16.67;;
18933;SDS011;9599;53.706;10.384;2022-09-09T04:47:31;31.37;;;17.80;;
18933;SDS011;9599;53.706;10.384;2022-09-09T04:49:59;30.43;;;16.77;;
18933;SDS011;9599;53.706;10.384;2022-09-09T04:52:27;28.83;;;16.90;;
18933;SDS011;9599;53.706;10.384;2022-09-09T04:54:55;29.67;;;16.97;;
18933;SDS011;9599;53.706;10.384;2022-09-09T04:57:23;30.93;;;16.73;;
18933;SDS011;9599;53.706;10.384;2022-09-09T04:59:52;29.10;;;16.33;;
18933;SDS011;9599;53.706;10.384;2022-09-09T05:02:20;29.13;;;16.67;;
18933;SDS011;9599;53.706;10.384;2022-09-09T05:04:48;27.73;;;16.50;;
18933;SDS011;9599;53.706;10.384;2022-09-09T05:07:16;30.50;;;16.60;;
18933;SDS011;9599;53.706;10.384;2022-09-09T05:09:45;28.50;;;16.03;;
18933;SDS011;9599;53.706;10.384;2022-09-09T05:12:15;28.50;;;15.63;;
18933;SDS011;9599;53.706;10.384;2022-09-09T05:14:49;28.10;;;16.40;;
18933;SDS011;9599;53.706;10.384;2022-09-09T05:17:18;27.23;;;15.10;;
18933;SDS011;9599;53.706;10.384;2022-09-09T05:19:47;25.37;;;14.73;;
18933;SDS011;9599;53.706;10.384;2022-09-09T05:22:18;29.40;;;16.10;;
18933;SDS011;9599;53.706;10.384;2022-09-09T05:24:48;24.90;;;14.57;;
18933;SDS011;9599;53.706;10.384;2022-09-09T05:27:16;24.53;;;13.97;;
18933;SDS011;9599;53.706;10.384;2022-09-09T05:29:47;22.80;;;14.00;;
18933;SDS011;9599;53.706;10.384;2022-09-09T05:32:15;24.63;;;13.80;;
18933;SDS011;9599;53.706;10.384;2022-09-09T05:34:47;25.47;;;14.40;;
18933;SDS011;9599;53.706;10.384;2022-09-09T05:37:16;22.10;;;13.60;;
18933;SDS011;9599;53.706;10.384;2022-09-09T05:39:44;22.90;;;13.77;;
18933;SDS011;9599;53.706;10.384;2022-09-09T05:42:12;21.07;;;13.47;;
18933;SDS011;9599;53.706;10.384;2022-09-09T05:44:40;21.57;;;13.00;;
18933;SDS011;9599;53.706;10.384;2022-09-09T05:47:08;21.23;;;13.60;;
18933;SDS011;9599;53.706;10.384;2022-09-09T05:49:37;19.23;;;12.10;;
18933;SDS011;9599;53.706;10.384;2022-09-09T05:52:06;19.40;;;11.90;;
18933;SDS011;9599;53.706;10.384;2022-09-09T05:54:33;19.87;;;11.97;;
18933;SDS011;9599;53.706;10.384;2022-09-09T05:57:01;17.40;;;10.80;;
18933;SDS011;9599;53.706;10.384;2022-09-09T05:59:29;16.30;;;10.60;;
18933;SDS011;9599;53.706;10.384;2022-09-09T06:01:59;16.77;;;11.03;;
18933;SDS011;9599;53.706;10.384;2022-09-09T06:04:33;16.20;;;10.80;;
18933;SDS011;9599;53.706;10.384;2022-09-09T06:07:02;19.87;;;11.67;;
18933;SDS011;9599;53.706;10.384;2022-09-09T06:09:31;17.03;;;10.83;;
18933;SDS011;9599;53.706;10.384;2022-09-09T06:11:59;17.57;;;11.20;;
18933;SDS011;9599;53.706;10.384;2022-09-09T06:14:26;17.20;;;10.60;;
18933;SDS011;9599;53.706;10.384;2022-09-09T06:16:57;15.43;;;10.40;;
18933;SDS011;9599;53.706;10.384;2022-09-09T06:19:28;16.37;;;10.60;;
18933;SDS011;9599;53.706;10.384;2022-09-09T06:21:58;16.80;;;11.27;;
18933;SDS011;9599;53.706;10.384;2022-09-09T06:24:27;13.23;;;9.80;;
18933;SDS011;9599;53.706;10.384;2022-09-09T06:26:59;13.93;;;9.43;;
18933;SDS011;9599;53.706;10.384;2022-09-09T06:29:31;14.00;;;9.90;;
18933;SDS011;9599;53.706;10.384;2022-09-09T06:32:00;14.10;;;9.20;;
18933;SDS011;9599;53.706;10.384;2022-09-09T06:34:29;13.00;;;8.77;;
18933;SDS011;9599;53.706;10.384;2022-09-09T06:36:58;13.17;;;8.97;;
18933;SDS011;9599;53.706;10.384;2022-09-09T06:39:33;12.70;;;8.87;;
18933;SDS011;9599;53.706;10.384;2022-09-09T06:42:03;11.97;;;7.53;;
18933;SDS011;9599;53.706;10.384;2022-09-09T06:44:53;11.83;;;7.80;;
18933;SDS011;9599;53.706;10.384;2022-09-09T06:47:47;13.57;;;8.03;;
18933;SDS011;9599;53.706;10.384;2022-09-09T06:50:15;10.30;;;7.80;;
18933;SDS011;9599;53.706;10.384;2022-09-09T06:52:45;11.37;;;8.37;;
18933;SDS011;9599;53.706;10.384;2022-09-09T06:55:13;9.60;;;7.47;;
18933;SDS011;9599;53.706;10.384;2022-09-09T06:57:43;11.93;;;8.40;;
18933;SDS011;9599;53.706;10.384;2022-09-09T07:00:15;11.07;;;7.87;;
18933;SDS011;9599;53.706;10.384;2022-09-09T07:02:44;11.00;;;6.83;;
18933;SDS011;9599;53.706;10.384;2022-09-09T07:05:13;9.97;;;7.17;;
18933;SDS011;9599;53.706;10.384;2022-09-09T07:07:42;9.13;;;6.97;;
18933;SDS011;9599;53.706;10.384;2022-09-09T07:10:12;8.77;;;6.80;;
18933;SDS011;9599;53.706;10.384;2022-09-09T07:12:40;8.83;;;6.50;;
18933;SDS011;9599;53.706;10.384;2022-09-09T07:15:12;9.30;;;6.77;;
18933;SDS011;9599;53.706;10.384;2022-09-09T07:17:43;11.07;;;7.07;;
18933;SDS011;9599;53.706;10.384;2022-09-09T07:20:10;10.70;;;7.13;;
18933;SDS011;9599;53.706;10.384;2022-09-09T07:22:39;9.63;;;6.33;;
18933;SDS011;9599;53.706;10.384;2022-09-09T07:25:08;8.37;;;7.03;;
18933;SDS011;9599;53.706;10.384;2022-09-09T07:27:36;9.23;;;6.90;;
18933;SDS011;9599;53.706;10.384;2022-09-09T07:30:05;9.03;;;6.83;;
18933;SDS011;9599;53.706;10.384;2022-09-09T07:32:35;9.17;;;6.77;;
18933;SDS011;9599;53.706;10.384;2022-09-09T07:35:05;8.47;;;6.17;;
18933;SDS011;9599;53.706;10.384;2022-09-09T07:37:36;9.47;;;6.60;;
18933;SDS011;9599;53.706;10.384;2022-09-09T07:40:05;7.90;;;6.77;;
18933;SDS011;9599;53.706;10.384;2022-09-09T07:42:33;6.93;;;5.50;;
18933;SDS011;9599;53.706;10.384;2022-09-09T07:45:02;9.03;;;5.93;;
18933;SDS011;9599;53.706;10.384;2022-09-09T07:47:30;7.80;;;5.47;;
18933;SDS011;9599;53.706;10.384;2022-09-09T07:49:59;7.47;;;5.20;;
18933;SDS011;9599;53.706;10.384;2022-09-09T07:52:30;7.50;;;5.20;;
18933;SDS011;9599;53.706;10.384;2022-09-09T07:55:02;6.13;;;5.53;;
18933;SDS011;9599;53.706;10.384;2022-09-09T07:57:31;5.77;;;5.17;;
18933;SDS011;9599;53.706;10.384;2022-09-09T08:00:00;6.27;;;5.10;;
18933;SDS011;9599;53.706;10.384;2022-09-09T08:02:37;5.83;;;5.10;;
18933;SDS011;9599;53.706;10.384;2022-09-09T08:05:08;8.03;;;5.00;;
18933;SDS011;9599;53.706;10.384;2022-09-09T08:07:38;7.57;;;4.73;;
18933;SDS011;9599;53.706;10.384;2022-09-09T08:10:06;6.50;;;4.60;;
18933;SDS011;9599;53.706;10.384;2022-09-09T08:12:36;5.83;;;4.57;;
18933;SDS011;9599;53.706;10.384;2022-09-09T08:15:04;6.23;;;4.77;;
18933;SDS011;9599;53.706;10.384;2022-09-09T08:17:33;6.37;;;4.33;;
18933;SDS011;9599;53.706;10.384;2022-09-09T08:20:05;6.97;;;4.37;;
18933;SDS011;9599;53.706;10.384;2022-09-09T08:22:35;5.47;;;4.47;;
18933;SDS011;9599;53.706;10.384;2022-09-09T08:25:04;4.90;;;3.90;;
18933;SDS011;9599;53.706;10.384;2022-09-09T08:27:36;5.30;;;4.07;;
18933;SDS011;9599;53.706;10.384;2022-09-09T08:30:05;5.67;;;3.67;;
18933;SDS011;9599;53.706;10.384;2022-09-09T08:32:34;5.57;;;3.87;;
18933;SDS011;9599;53.706;10.384;2022-09-09T08:35:02;4.63;;;4.03;;
18933;SDS011;9599;53.706;10.384;2022-09-09T08:37:34;4.33;;;3.93;;
18933;SDS011;9599;53.706;10.384;2022-09-09T08:40:03;5.47;;;3.90;;
18933;SDS011;9599;53.706;10.384;2022-09-09T08:42:37;4.83;;;4.23;;
18933;SDS011;9599;53.706;10.384;2022-09-09T08:45:18;8.07;;;4.13;;
18933;SDS011;9599;53.706;10.384;2022-09-09T08:48:01;3.97;;;3.57;;
18933;SDS011;9599;53.706;10.384;2022-09-09T08:50:49;4.87;;;3.63;;
18933;SDS011;9599;53.706;10.384;2022-09-09T08:53:27;4.23;;;3.83;;
18933;SDS011;9599;53.706;10.384;2022-09-09T08:55:59;4.87;;;3.50;;
18933;SDS011;9599;53.706;10.384;2022-09-09T08:58:46;3.90;;;3.50;;
18933;SDS011;9599;53.706;10.384;2022-09-09T09:04:26;3.53;;;2.53;;
18933;SDS011;9599;53.706;10.384;2022-09-09T09:07:07;4.97;;;2.57;;
18933;SDS011;9599;53.706;10.384;2022-09-09T09:09:46;3.07;;;2.47;;
18933;SDS011;9599;53.706;10.384;2022-09-09T09:12:21;3.33;;;2.50;;
18933;SDS011;9599;53.706;10.384;2022-09-09T09:14:53;3.17;;;2.53;;
18933;SDS011;9599;53.706;10.384;2022-09-09T09:17:22;2.93;;;2.63;;
18933;SDS011;9599;53.706;10.384;2022-09-09T09:19:53;3.53;;;2.43;;
18933;SDS011;9599;53.706;10.384;2022-09-09T09:22:22;3.20;;;2.40;;
18933;SDS011;9599;53.706;10.384;2022-09-09T09:25:00;3.53;;;2.30;;
18933;SDS011;9599;53.706;10.384;2022-09-09T09:27:43;3.07;;;2.37;;
18933;SDS011;9599;53.706;10.384;2022-09-09T09:30:19;2.90;;;2.33;;
18933;SDS011;9599;53.706;10.384;2022-09-09T09:32:59;2.80;;;2.60;;
18933;SDS011;9599;53.706;10.384;2022-09-09T09:35:30;2.70;;;2.33;;
18933;SDS011;9599;53.706;10.384;2022-09-09T09:38:08;2.47;;;1.90;;
18933;SDS011;9599;53.706;10.384;2022-09-09T09:41:05;2.60;;;2.40;;
18933;SDS011;9599;53.706;10.384;2022-09-09T09:43:33;3.37;;;2.17;;
18933;SDS011;9599;53.706;10.384;2022-09-09T09:46:17;3.40;;;2.40;;
18933;SDS011;9599;53.706;10.384;2022-09-09T09:48:58;2.33;;;2.13;;
18933;SDS011;9599;53.706;10.384;2022-09-09T09:51:27;3.47;;;2.07;;
18933;SDS011;9599;53.706;10.384;2022-09-09T09:56:58;3.03;;;2.47;;
18933;SDS011;9599;53.706;10.384;2022-09-09T09:59:36;2.80;;;2.33;;
18933;SDS011;9599;53.706;10.384;2022-09-09T10:02:19;2.90;;;2.17;;
18933;SDS011;9599;53.706;10.384;2022-09-09T10:05:05;2.03;;;1.87;;
18933;SDS011;9599;53.706;10.384;2022-09-09T10:07:42;3.60;;;2.37;;
18933;SDS011;9599;53.706;10.384;2022-09-09T10:10:12;2.87;;;2.00;;
18933;SDS011;9599;53.706;10.384;2022-09-09T10:12:50;2.77;;;2.23;;
18933;SDS011;9599;53.706;10.384;2022-09-09T10:15:30;3.37;;;2.30;;
18933;SDS011;9599;53.706;10.384;2022-09-09T10:18:05;3.30;;;2.20;;
18933;SDS011;9599;53.706;10.384;2022-09-09T10:20:44;3.07;;;1.70;;
18933;SDS011;9599;53.706;10.384;2022-09-09T10:23:24;2.87;;;1.77;;
18933;SDS011;9599;53.706;10.384;2022-09-09T10:26:08;3.23;;;2.00;;
18933;SDS011;9599;53.706;10.384;2022-09-09T10:28:51;3.00;;;1.73;;
18933;SDS011;9599;53.706;10.384;2022-09-09T10:31:33;2.20;;;1.70;;
18933;SDS011;9599;53.706;10.384;2022-09-09T10:34:11;5.17;;;1.87;;
18933;SDS011;9599;53.706;10.384;2022-09-09T10:36:46;1.73;;;1.63;;
18933;SDS011;9599;53.706;10.384;2022-09-09T10:39:18;4.30;;;1.60;;
18933;SDS011;9599;53.706;10.384;2022-09-09T10:42:00;3.00;;;1.60;;
18933;SDS011;9599;53.706;10.384;2022-09-09T10:44:36;2.50;;;1.70;;
18933;SDS011;9599;53.706;10.384;2022-09-09T10:47:22;2.50;;;1.70;;
18933;SDS011;9599;53.706;10.384;2022-09-09T10:50:04;1.90;;;1.70;;
18933;SDS011;9599;53.706;10.384;2022-09-09T10:52:43;2.23;;;1.60;;
18933;SDS011;9599;53.706;10.384;2022-09-09T10:55:20;3.30;;;1.60;;
18933;SDS011;9599;53.706;10.384;2022-09-09T10:57:55;2.17;;;1.70;;
18933;SDS011;9599;53.706;10.384;2022-09-09T11:00:30;1.67;;;1.57;;
18933;SDS011;9599;53.706;10.384;2022-09-09T11:03:06;3.67;;;1.97;;
18933;SDS011;9599;53.706;10.384;2022-09-09T11:05:41;2.10;;;1.77;;
18933;SDS011;9599;53.706;10.384;2022-09-09T11:08:12;2.17;;;1.70;;
18933;SDS011;9599;53.706;10.384;2022-09-09T11:10:45;1.97;;;1.73;;
18933;SDS011;9599;53.706;10.384;2022-09-09T11:13:22;2.10;;;1.47;;
18933;SDS011;9599;53.706;10.384;2022-09-09T11:15:54;2.80;;;1.57;;
18933;SDS011;9599;53.706;10.384;2022-09-09T11:18:29;2.03;;;1.83;;
18933;SDS011;9599;53.706;10.384;2022-09-09T11:20:59;3.13;;;2.00;;
18933;SDS011;9599;53.706;10.384;2022-09-09T11:23:32;5.40;;;3.90;;
18933;SDS011;9599;53.706;10.384;2022-09-09T11:26:08;4.63;;;1.60;;
18933;SDS011;9599;53.706;10.384;2022-09-09T11:28:44;5.47;;;4.23;;
18933;SDS011;9599;53.706;10.384;2022-09-09T11:31:37;4.23;;;2.70;;
18933;SDS011;9599;53.706;10.384;2022-09-09T11:34:24;4.07;;;3.50;;
18933;SDS011;9599;53.706;10.384;2022-09-09T11:37:08;2.23;;;1.87;;
18933;SDS011;9599;53.706;10.384;2022-09-09T11:40:01;2.97;;;1.80;;
18933;SDS011;9599;53.706;10.384;2022-09-09T11:42:43;2.13;;;1.33;;
18933;SDS011;9599;53.706;10.384;2022-09-09T11:45:15;2.10;;;1.53;;
18933;SDS011;9599;53.706;10.384;2022-09-09T11:47:54;2.67;;;2.03;;
18933;SDS011;9599;53.706;10.384;2022-09-09T11:50:28;2.17;;;1.30;;
18933;SDS011;9599;53.706;10.384;2022-09-09T11:56:03;2.13;;;1.53;;
18933;SDS011;9599;53.706;10.384;2022-09-09T11:58:41;1.80;;;1.60;;
18933;SDS011;9599;53.706;10.384;2022-09-09T12:01:15;1.60;;;1.50;;
18933;SDS011;9599;53.706;10.384;2022-09-09T12:04:11;1.27;;;1.10;;
18933;SDS011;9599;53.706;10.384;2022-09-09T12:06:50;1.90;;;1.53;;
18933;SDS011;9599;53.706;10.384;2022-09-09T12:09:22;1.53;;;1.40;;
18933;SDS011;9599;53.706;10.384;2022-09-09T12:12:04;1.87;;;1.30;;
18933;SDS011;9599;53.706;10.384;2022-09-09T12:14:36;2.30;;;1.30;;
18933;SDS011;9599;53.706;10.384;2022-09-09T12:17:09;2.57;;;1.30;;
18933;SDS011;9599;53.706;10.384;2022-09-09T12:19:46;3.93;;;1.50;;
18933;SDS011;9599;53.706;10.384;2022-09-09T12:22:17;2.30;;;1.40;;
18933;SDS011;9599;53.706;10.384;2022-09-09T12:25:00;2.23;;;1.30;;
18933;SDS011;9599;53.706;10.384;2022-09-09T12:27:52;2.40;;;1.50;;
18933;SDS011;9599;53.706;10.384;2022-09-09T12:30:29;1.77;;;1.30;;
18933;SDS011;9599;53.706;10.384;2022-09-09T12:33:02;3.00;;;1.67;;
18933;SDS011;9599;53.706;10.384;2022-09-09T12:35:38;2.47;;;1.30;;
18933;SDS011;9599;53.706;10.384;2022-09-09T12:38:10;2.27;;;1.60;;
18933;SDS011;9599;53.706;10.384;2022-09-09T12:40:42;2.17;;;1.50;;
18933;SDS011;9599;53.706;10.384;2022-09-09T12:43:17;2.70;;;1.60;;
18933;SDS011;9599;53.706;10.384;2022-09-09T12:45:47;2.30;;;1.40;;
18933;SDS011;9599;53.706;10.384;2022-09-09T12:48:16;3.13;;;1.70;;
18933;SDS011;9599;53.706;10.384;2022-09-09T12:50:48;2.60;;;1.50;;
18933;SDS011;9599;53.706;10.384;2022-09-09T12:53:19;1.93;;;1.47;;
18933;SDS011;9599;53.706;10.384;2022-09-09T12:55:52;2.93;;;1.70;;
18933;SDS011;9599;53.706;10.384;2022-09-09T12:58:25;2.70;;;1.43;;
18933;SDS011;9599;53.706;10.384;2022-09-09T13:00:59;2.30;;;1.40;;
18933;SDS011;9599;53.706;10.384;2022-09-09T13:03:31;2.27;;;1.63;;
18933;SDS011;9599;53.706;10.384;2022-09-09T13:06:11;1.83;;;1.70;;
18933;SDS011;9599;53.706;10.384;2022-09-09T13:08:41;3.30;;;1.90;;
18933;SDS011;9599;53.706;10.384;2022-09-09T13:11:10;4.57;;;1.90;;
18933;SDS011;9599;53.706;10.384;2022-09-09T13:13:41;2.70;;;1.60;;
18933;SDS011;9599;53.706;10.384;2022-09-09T13:16:18;2.23;;;1.80;;
18933;SDS011;9599;53.706;10.384;2022-09-09T13:18:49;1.97;;;1.80;;
18933;SDS011;9599;53.706;10.384;2022-09-09T13:21:18;3.17;;;1.87;;
18933;SDS011;9599;53.706;10.384;2022-09-09T13:23:50;3.13;;;1.87;;
18933;SDS011;9599;53.706;10.384;2022-09-09T13:26:22;2.20;;;1.67;;
18933;SDS011;9599;53.706;10.384;2022-09-09T13:28:52;2.23;;;1.70;;
18933;SDS011;9599;53.706;10.384;2022-09-09T13:31:21;2.37;;;1.80;;
18933;SDS011;9599;53.706;10.384;2022-09-09T13:33:50;3.23;;;1.80;;
18933;SDS011;9599;53.706;10.384;2022-09-09T13:36:27;3.60;;;1.90;;
18933;SDS011;9599;53.706;10.384;2022-09-09T13:38:58;2.50;;;1.90;;
18933;SDS011;9599;53.706;10.384;2022-09-09T13:41:28;3.53;;;2.10;;
18933;SDS011;9599;53.706;10.384;2022-09-09T13:43:59;2.83;;;1.90;;
18933;SDS011;9599;53.706;10.384;2022-09-09T13:46:31;2.10;;;1.90;;
18933;SDS011;9599;53.706;10.384;2022-09-09T13:49:01;2.67;;;2.40;;
18933;SDS011;9599;53.706;10.384;2022-09-09T13:51:46;3.20;;;2.30;;
18933;SDS011;9599;53.706;10.384;2022-09-09T13:54:17;2.97;;;2.17;;
18933;SDS011;9599;53.706;10.384;2022-09-09T13:56:46;2.30;;;2.10;;
18933;SDS011;9599;53.706;10.384;2022-09-09T13:59:16;5.03;;;2.23;;
18933;SDS011;9599;53.706;10.384;2022-09-09T14:01:46;2.80;;;2.07;;
18933;SDS011;9599;53.706;10.384;2022-09-09T14:04:15;2.70;;;2.30;;
18933;SDS011;9599;53.706;10.384;2022-09-09T14:06:42;3.63;;;2.70;;
18933;SDS011;9599;53.706;10.384;2022-09-09T14:09:14;3.20;;;2.90;;
18933;SDS011;9599;53.706;10.384;2022-09-09T14:11:43;4.03;;;2.90;;
18933;SDS011;9599;53.706;10.384;2022-09-09T14:14:12;3.00;;;2.70;;
18933;SDS011;9599;53.706;10.384;2022-09-09T14:16:40;3.10;;;2.67;;
18933;SDS011;9599;53.706;10.384;2022-09-09T14:19:08;2.93;;;2.60;;
18933;SDS011;9599;53.706;10.384;2022-09-09T14:21:36;2.77;;;2.50;;
18933;SDS011;9599;53.706;10.384;2022-09-09T14:24:04;6.43;;;2.60;;
18933;SDS011;9599;53.706;10.384;2022-09-09T14:26:33;3.60;;;2.70;;
18933;SDS011;9599;53.706;10.384;2022-09-09T14:29:01;3.43;;;2.70;;
18933;SDS011;9599;53.706;10.384;2022-09-09T14:31:29;3.10;;;2.53;;
18933;SDS011;9599;53.706;10.384;2022-09-09T14:33:57;3.17;;;2.43;;
18933;SDS011;9599;53.706;10.384;2022-09-09T14:36:25;3.60;;;2.70;;
18933;SDS011;9599;53.706;10.384;2022-09-09T14:38:52;3.80;;;2.80;;
18933;SDS011;9599;53.706;10.384;2022-09-09T14:41:20;3.23;;;2.90;;
18933;SDS011;9599;53.706;10.384;2022-09-09T14:43:50;4.70;;;2.43;;
18933;SDS011;9599;53.706;10.384;2022-09-09T14:46:19;3.60;;;2.53;;
18933;SDS011;9599;53.706;10.384;2022-09-09T14:48:47;3.20;;;2.23;;
18933;SDS011;9599;53.706;10.384;2022-09-09T14:51:16;2.70;;;2.03;;
18933;SDS011;9599;53.706;10.384;2022-09-09T14:53:45;3.37;;;2.10;;
18933;SDS011;9599;53.706;10.384;2022-09-09T14:56:16;3.13;;;2.10;;
18933;SDS011;9599;53.706;10.384;2022-09-09T14:58:44;2.27;;;1.97;;
18933;SDS011;9599;53.706;10.384;2022-09-09T15:01:16;2.37;;;2.00;;
18933;SDS011;9599;53.706;10.384;2022-09-09T15:03:48;2.20;;;1.90;;
18933;SDS011;9599;53.706;10.384;2022-09-09T15:06:18;2.47;;;1.97;;
18933;SDS011;9599;53.706;10.384;2022-09-09T15:08:47;2.73;;;2.03;;
18933;SDS011;9599;53.706;10.384;2022-09-09T15:11:17;4.10;;;2.20;;
18933;SDS011;9599;53.706;10.384;2022-09-09T15:13:44;4.37;;;2.20;;
18933;SDS011;9599;53.706;10.384;2022-09-09T15:16:15;3.23;;;2.07;;
18933;SDS011;9599;53.706;10.384;2022-09-09T15:18:44;2.47;;;2.27;;
18933;SDS011;9599;53.706;10.384;2022-09-09T15:21:14;3.90;;;2.30;;